Time;durP1;ratioP1;P1;durP2;ratioP2;P2;SDS_P1;SDS_P2;PMS_P1;PMS_P2;Temp;Humidity;BMP_temperature;BMP_pressure;BME280_temperature;BME280_humidity;BME280_pressure;Samples;Min_cycle;Max_cycle;Signal;HPM_P1;HPM_P2
2023/06/10 00:00:14;;;;;;;11.93;6.90;;;22.20;1.00;;;;;;4792038;29;37142;-78
2023/06/10 00:02:47;;;;;;;7.07;6.20;;;22.10;1.00;;;;;;4776317;29;37465;-78
2023/06/10 00:05:13;;;;;;;8.13;5.22;;;22.10;1.00;;;;;;4836728;29;36279;-80
2023/06/10 00:07:41;;;;;;;7.72;6.30;;;22.10;1.00;;;;;;4813438;29;39973;-78
2023/06/10 00:10:07;;;;;;;7.38;6.22;;;22.10;1.00;;;;;;4814280;29;37193;-78
2023/06/10 00:12:37;;;;;;;8.48;6.10;;;22.00;1.00;;;;;;4799455;29;38733;-78
2023/06/10 00:15:08;;;;;;;8.45;5.95;;;22.00;1.00;;;;;;4808665;29;34925;-78
2023/06/10 00:17:38;;;;;;;8.13;5.70;;;21.90;1.00;;;;;;4814681;29;47244;-78
2023/06/10 00:20:08;;;;;;;9.13;6.07;;;21.90;1.00;;;;;;4807854;29;37202;-79
2023/06/10 00:22:35;;;;;;;7.55;6.38;;;21.90;1.00;;;;;;4810172;29;36890;-79
2023/06/10 00:25:01;;;;;;;6.32;5.60;;;22.00;1.00;;;;;;4827265;29;37223;-79
2023/06/10 00:27:31;;;;;;;6.65;5.63;;;21.90;1.00;;;;;;4811044;29;39641;-78
2023/06/10 00:29:57;;;;;;;7.07;6.38;;;21.80;1.00;;;;;;4807952;29;38857;-79
2023/06/10 00:32:23;;;;;;;6.88;5.93;;;21.80;99.90;;;;;;4816983;29;36993;-79
2023/06/10 00:34:49;;;;;;;8.02;6.05;;;21.70;1.00;;;;;;4816793;29;38035;-78
2023/06/10 00:37:15;;;;;;;10.40;6.30;;;21.60;1.00;;;;;;4827849;29;38081;-77
2023/06/10 00:39:41;;;;;;;9.32;6.55;;;21.50;1.00;;;;;;4830033;29;38719;-78
2023/06/10 00:42:10;;;;;;;8.02;6.68;;;21.50;99.90;;;;;;4816810;29;37960;-78
2023/06/10 00:44:36;;;;;;;6.70;5.90;;;21.60;1.00;;;;;;4827743;29;37143;-78
2023/06/10 00:47:03;;;;;;;7.13;6.20;;;21.60;1.00;;;;;;4832455;29;38677;-79
2023/06/10 00:49:29;;;;;;;8.50;6.78;;;21.60;99.90;;;;;;4830825;29;37133;-79
2023/06/10 00:51:55;;;;;;;9.10;5.80;;;21.60;1.00;;;;;;4836002;29;37049;-79
2023/06/10 00:54:22;;;;;;;7.78;6.50;;;21.60;1.00;;;;;;4826752;29;36866;-78
2023/06/10 00:56:49;;;;;;;8.18;5.82;;;21.50;1.00;;;;;;4813614;29;39212;-79
2023/06/10 00:59:16;;;;;;;9.32;5.53;;;21.50;1.00;;;;;;4830046;29;37267;-75
2023/06/10 01:04:13;;;;;;;7.50;6.70;;;21.40;99.90;;;;;;4778313;29;20059;-78
2023/06/10 01:07:20;;;;;;;7.20;6.45;;;21.30;99.90;;;;;;4795709;29;37369;-77
2023/06/10 01:10:21;;;;;;;8.73;6.30;;;21.30;99.90;;;;;;4788275;29;46992;-78
2023/06/10 01:12:59;;;;;;;9.55;6.80;;;21.20;99.90;;;;;;4794240;29;48355;-77
2023/06/10 01:15:25;;;;;;;7.80;6.63;;;21.10;1.00;;;;;;4775031;29;36282;-77
2023/06/10 01:18:01;;;;;;;7.38;6.28;;;21.10;99.90;;;;;;4789729;29;37712;-78
2023/06/10 01:20:29;;;;;;;7.38;6.03;;;21.00;99.90;;;;;;4792518;29;48937;-77
2023/06/10 01:22:57;;;;;;;7.03;6.32;;;21.00;99.90;;;;;;4789801;29;39217;-77
2023/06/10 01:25:28;;;;;;;8.93;6.22;;;21.00;1.00;;;;;;4785957;29;37037;-77
2023/06/10 01:28:26;;;;;;;6.90;6.20;;;20.90;1.00;;;;;;4789430;29;40629;-77
2023/06/10 01:31:17;;;;;;;8.48;6.65;;;20.80;1.00;;;;;;4788973;29;48443;-77
2023/06/10 01:33:46;;;;;;;7.75;6.53;;;20.80;1.00;;;;;;4791621;29;47906;-77
2023/06/10 01:36:16;;;;;;;14.27;6.57;;;20.80;1.00;;;;;;4791028;29;38142;-78
2023/06/10 01:38:47;;;;;;;6.65;6.05;;;20.70;1.00;;;;;;4791374;29;38692;-79
2023/06/10 01:41:15;;;;;;;10.30;6.97;;;20.70;1.00;;;;;;4790648;29;39457;-77
2023/06/10 01:43:43;;;;;;;9.73;7.10;;;20.60;1.00;;;;;;4797057;29;38298;-77
2023/06/10 01:46:10;;;;;;;9.15;6.57;;;20.60;1.00;;;;;;4794565;29;36507;-75
2023/06/10 01:48:37;;;;;;;10.20;6.93;;;20.60;1.00;;;;;;4794169;29;39426;-75
2023/06/10 01:51:03;;;;;;;7.50;6.80;;;20.60;1.00;;;;;;4796176;29;38542;-75
2023/06/10 01:53:29;;;;;;;8.75;6.72;;;20.60;99.90;;;;;;4790994;29;38151;-78
2023/06/10 01:55:56;;;;;;;12.20;7.13;;;20.60;1.00;;;;;;4788415;29;36022;-78
2023/06/10 01:58:22;;;;;;;7.13;6.40;;;20.50;99.90;;;;;;4794105;29;38390;-77
2023/06/10 02:00:48;;;;;;;8.75;6.32;;;20.40;69.70;;;;;;4795187;29;38775;-77
2023/06/10 02:03:14;;;;;;;7.88;7.07;;;20.40;1.00;;;;;;4794447;29;38458;-77
2023/06/10 02:05:40;;;;;;;8.75;7.22;;;20.30;1.00;;;;;;4782846;29;35996;-75
2023/06/10 02:08:06;;;;;;;10.25;7.32;;;20.30;67.60;;;;;;4798167;29;39022;-73
2023/06/10 02:10:32;;;;;;;10.45;6.88;;;20.30;99.90;;;;;;4795047;29;38366;-74
2023/06/10 02:12:58;;;;;;;9.00;7.20;;;20.40;99.90;;;;;;4781972;29;36799;-75
2023/06/10 02:15:25;;;;;;;8.27;6.97;;;20.40;1.00;;;;;;4779938;29;36178;-75
2023/06/10 02:17:52;;;;;;;8.68;6.80;;;20.30;99.90;;;;;;4792291;29;37609;-75
2023/06/10 02:20:18;;;;;;;10.77;7.45;;;20.40;99.90;;;;;;4793021;29;38498;-76
2023/06/10 02:22:46;;;;;;;7.53;6.75;;;20.40;1.00;;;;;;4799385;29;39017;-77
2023/06/10 02:25:16;;;;;;;8.02;7.22;;;20.40;58.20;;;;;;4788477;29;38158;-76
2023/06/10 02:27:43;;;;;;;9.10;7.25;;;20.40;1.00;;;;;;4801841;29;40507;-76
2023/06/10 02:30:13;;;;;;;8.20;7.00;;;20.40;1.00;;;;;;4795112;29;37467;-76
2023/06/10 02:32:50;;;;;;;8.75;7.00;;;20.40;1.00;;;;;;4782260;29;37039;-76
2023/06/10 02:35:17;;;;;;;8.32;7.53;;;20.40;1.00;;;;;;4790150;29;37955;-76
2023/06/10 02:37:44;;;;;;;8.27;7.38;;;20.30;1.00;;;;;;4782938;29;37379;-75
2023/06/10 02:40:11;;;;;;;9.15;6.70;;;20.30;1.00;;;;;;4778396;29;38702;-76
2023/06/10 02:42:37;;;;;;;12.32;8.00;;;20.30;1.00;;;;;;4797185;29;39889;-76
2023/06/10 02:45:04;;;;;;;9.20;8.30;;;20.30;1.00;;;;;;4792758;29;38465;-76
2023/06/10 02:47:30;;;;;;;8.27;7.18;;;20.30;1.00;;;;;;4799007;29;46540;-76
2023/06/10 02:49:56;;;;;;;13.23;7.65;;;20.30;99.90;;;;;;4796463;29;37304;-76
2023/06/10 02:52:22;;;;;;;10.52;7.15;;;20.20;99.90;;;;;;4796714;29;38048;-75
2023/06/10 02:54:48;;;;;;;10.00;8.00;;;20.10;1.00;;;;;;4797269;29;37703;-76
2023/06/10 02:57:14;;;;;;;7.03;6.22;;;20.10;1.00;;;;;;4793927;29;38706;-76
2023/06/10 02:59:41;;;;;;;8.32;7.32;;;20.10;1.00;;;;;;4797754;29;38546;-75
2023/06/10 03:02:07;;;;;;;10.25;7.53;;;20.10;1.00;;;;;;4786369;29;36727;-76
2023/06/10 03:04:33;;;;;;;10.48;7.35;;;20.10;99.90;;;;;;4798034;29;37950;-76
2023/06/10 03:07:03;;;;;;;11.32;7.38;;;20.10;1.00;;;;;;4783425;29;37703;-75
2023/06/10 03:09:29;;;;;;;9.88;7.85;;;20.10;50.40;;;;;;4799397;29;48537;-76
2023/06/10 03:11:55;;;;;;;8.73;7.30;;;20.00;99.90;;;;;;4800274;29;38868;-77
2023/06/10 03:14:21;;;;;;;8.88;7.75;;;20.00;1.00;;;;;;4800836;29;36602;-76
2023/06/10 03:16:48;;;;;;;11.98;7.50;;;20.00;45.70;;;;;;4798479;29;38111;-76
2023/06/10 03:19:14;;;;;;;8.82;7.35;;;19.90;99.90;;;;;;4797635;29;38314;-76
2023/06/10 03:21:44;;;;;;;8.75;7.90;;;19.90;99.90;;;;;;4800656;29;37603;-75
2023/06/10 03:24:10;;;;;;;8.32;7.03;;;19.80;97.50;;;;;;4795306;29;37131;-75
2023/06/10 03:26:36;;;;;;;12.77;7.38;;;19.80;1.00;;;;;;4796477;29;39863;-76
2023/06/10 03:29:02;;;;;;;10.85;7.50;;;19.70;1.00;;;;;;4794940;29;37848;-76
2023/06/10 03:31:29;;;;;;;8.68;7.53;;;19.70;99.90;;;;;;4796691;29;38291;-75
2023/06/10 03:33:55;;;;;;;9.43;6.95;;;19.60;99.90;;;;;;4797823;29;37424;-76
2023/06/10 03:36:22;;;;;;;10.05;8.18;;;19.60;99.90;;;;;;4794895;29;37947;-75
2023/06/10 03:38:50;;;;;;;8.93;7.68;;;19.60;99.90;;;;;;4800759;29;38136;-75
2023/06/10 03:41:16;;;;;;;10.13;7.45;;;19.60;1.00;;;;;;4798194;29;36919;-75
2023/06/10 03:43:44;;;;;;;10.13;7.07;;;19.60;99.90;;;;;;4798354;29;36303;-76
2023/06/10 03:46:10;;;;;;;11.02;7.03;;;19.60;99.90;;;;;;4791966;29;37745;-74
2023/06/10 03:48:37;;;;;;;11.02;8.27;;;19.60;1.00;;;;;;4768791;29;37304;-75
2023/06/10 03:51:03;;;;;;;8.63;7.45;;;19.50;1.00;;;;;;4794239;29;37012;-75
2023/06/10 03:53:29;;;;;;;10.80;7.32;;;19.50;99.90;;;;;;4790146;29;37473;-76
2023/06/10 03:55:57;;;;;;;9.43;7.05;;;19.50;1.00;;;;;;4800022;29;39560;-75
2023/06/10 03:58:23;;;;;;;10.32;8.30;;;19.50;1.00;;;;;;4800561;29;39714;-77
2023/06/10 04:00:49;;;;;;;9.80;7.05;;;19.40;18.80;;;;;;4799042;29;38113;-76
2023/06/10 04:03:15;;;;;;;12.52;7.50;;;19.40;1.00;;;;;;4798368;29;37251;-77
2023/06/10 04:05:41;;;;;;;12.18;6.78;;;19.40;99.90;;;;;;4800660;29;38624;-75
2023/06/10 04:08:08;;;;;;;7.68;6.95;;;19.40;99.90;;;;;;4788555;29;37406;-73
2023/06/10 04:10:34;;;;;;;8.57;7.15;;;19.50;1.00;;;;;;4791135;29;38105;-74
2023/06/10 04:13:00;;;;;;;10.02;7.22;;;19.50;1.00;;;;;;4799252;29;36234;-74
2023/06/10 04:15:26;;;;;;;7.97;6.95;;;19.40;1.00;;;;;;4793173;29;46540;-75
2023/06/10 04:17:52;;;;;;;9.45;7.22;;;19.50;1.00;;;;;;4794216;29;38832;-74
2023/06/10 04:20:19;;;;;;;9.40;7.35;;;19.50;1.00;;;;;;4794853;29;38117;-75
2023/06/10 04:22:45;;;;;;;11.88;7.72;;;19.40;99.90;;;;;;4787379;29;37115;-75
2023/06/10 04:25:11;;;;;;;8.85;6.90;;;19.40;1.00;;;;;;4793749;29;38639;-75
2023/06/10 04:27:37;;;;;;;7.53;6.57;;;19.40;99.90;;;;;;4796559;29;37315;-75
2023/06/10 04:30:04;;;;;;;10.10;7.50;;;19.40;1.00;;;;;;4794711;29;36711;-76
2023/06/10 04:32:30;;;;;;;10.65;7.30;;;19.40;1.00;;;;;;4792797;29;46689;-76
2023/06/10 04:34:56;;;;;;;8.88;7.10;;;19.40;1.00;;;;;;4789405;29;38676;-74
2023/06/10 04:37:22;;;;;;;8.57;6.57;;;19.40;1.00;;;;;;4779539;29;37593;-75
2023/06/10 04:39:48;;;;;;;7.35;6.53;;;19.40;1.00;;;;;;4797141;29;37532;-76
2023/06/10 04:42:14;;;;;;;8.45;6.70;;;19.50;1.00;;;;;;4795094;29;36155;-77
2023/06/10 04:44:41;;;;;;;8.48;6.97;;;19.40;75.90;;;;;;4795572;29;38966;-76
2023/06/10 04:47:07;;;;;;;9.52;7.20;;;19.40;1.00;;;;;;4794905;29;38762;-76
2023/06/10 04:49:35;;;;;;;9.18;6.68;;;19.50;1.00;;;;;;4779061;29;37231;-76
2023/06/10 04:52:01;;;;;;;12.70;6.57;;;19.40;1.00;;;;;;4794042;29;36799;-75
2023/06/10 04:54:31;;;;;;;8.80;6.05;;;19.40;1.00;;;;;;4779573;29;47104;-75
2023/06/10 04:56:57;;;;;;;10.05;6.43;;;19.50;99.90;;;;;;4797039;29;38708;-74
2023/06/10 04:59:23;;;;;;;8.02;6.88;;;19.50;99.90;;;;;;4796656;29;37089;-76
2023/06/10 05:01:49;;;;;;;7.82;6.70;;;19.70;1.00;;;;;;4794878;29;37650;-76
2023/06/10 05:04:15;;;;;;;8.63;5.97;;;19.90;99.90;;;;;;4794563;29;37751;-76
2023/06/10 05:06:41;;;;;;;9.30;6.53;;;20.10;9.90;;;;;;4788166;29;39317;-76
2023/06/10 05:09:07;;;;;;;8.85;6.28;;;20.30;99.90;;;;;;4780323;29;37221;-77
2023/06/10 05:11:33;;;;;;;7.45;5.90;;;20.50;99.90;;;;;;4799427;29;37427;-74
2023/06/10 05:14:00;;;;;;;10.20;6.88;;;20.60;99.90;;;;;;4783212;29;39118;-76
2023/06/10 05:16:26;;;;;;;9.40;6.68;;;20.60;1.00;;;;;;4790109;29;37654;-75
2023/06/10 05:18:52;;;;;;;9.05;6.70;;;20.60;28.30;;;;;;4788288;29;37264;-77
2023/06/10 05:21:18;;;;;;;9.38;6.68;;;20.60;1.00;;;;;;4792535;29;36272;-75
2023/06/10 05:23:44;;;;;;;7.57;6.22;;;20.70;1.00;;;;;;4796164;29;39775;-78
2023/06/10 05:26:10;;;;;;;8.10;6.30;;;20.80;1.00;;;;;;4796900;29;37593;-75
2023/06/10 05:28:37;;;;;;;10.82;6.95;;;21.00;1.00;;;;;;4793054;29;37754;-78
2023/06/10 05:31:03;;;;;;;7.80;6.55;;;20.90;99.90;;;;;;4775840;29;36477;-78
2023/06/10 05:33:29;;;;;;;8.20;6.18;;;21.00;99.90;;;;;;4775401;29;38911;-78
2023/06/10 05:35:55;;;;;;;10.18;6.47;;;21.10;99.90;;;;;;4788452;29;39999;-77
2023/06/10 05:38:21;;;;;;;9.35;6.40;;;21.00;99.90;;;;;;4794361;29;39121;-77
2023/06/10 05:40:47;;;;;;;8.27;6.82;;;21.20;1.00;;;;;;4788014;29;35775;-77
2023/06/10 05:43:16;;;;;;;9.52;6.45;;;21.20;84.20;;;;;;4790896;29;38487;-78
2023/06/10 05:45:42;;;;;;;7.93;6.32;;;21.30;99.90;;;;;;4792027;29;39877;-78
2023/06/10 05:48:08;;;;;;;8.57;6.13;;;21.30;99.90;;;;;;4796761;29;37636;-77
2023/06/10 05:50:38;;;;;;;8.50;6.57;;;21.40;72.50;;;;;;4792273;29;36122;-77
2023/06/10 05:53:06;;;;;;;10.68;6.95;;;21.60;99.90;;;;;;4798823;29;37700;-77
2023/06/10 05:55:33;;;;;;;8.65;6.10;;;21.50;1.00;;;;;;4795927;29;37215;-79
2023/06/10 05:58:00;;;;;;;9.48;6.68;;;21.60;1.00;;;;;;4809249;29;38092;-79
2023/06/10 06:00:27;;;;;;;8.32;6.05;;;21.70;1.00;;;;;;4784714;29;35927;-78
2023/06/10 06:02:54;;;;;;;9.15;7.05;;;21.70;99.90;;;;;;4777305;29;39601;-79
2023/06/10 06:05:20;;;;;;;9.40;6.15;;;21.80;1.00;;;;;;4795637;29;39104;-78
2023/06/10 06:07:46;;;;;;;10.23;6.70;;;21.80;1.00;;;;;;4795434;29;37792;-78
2023/06/10 06:10:12;;;;;;;16.77;7.53;;;22.00;1.00;;;;;;4792031;29;35839;-77
2023/06/10 06:12:38;;;;;;;10.02;7.03;;;21.90;1.00;;;;;;4794974;29;38308;-80
2023/06/10 06:15:04;;;;;;;9.50;6.57;;;21.90;1.00;;;;;;4795141;29;38229;-79
2023/06/10 06:17:30;;;;;;;10.82;6.47;;;22.10;1.00;;;;;;4799646;29;37889;-80
2023/06/10 06:19:56;;;;;;;11.80;6.68;;;22.00;1.00;;;;;;4781113;29;36070;-80
2023/06/10 06:22:23;;;;;;;9.05;6.10;;;22.00;1.00;;;;;;4795714;29;38362;-85
2023/06/10 06:24:49;;;;;;;9.52;6.40;;;22.40;38.70;;;;;;4783557;29;37497;-83
2023/06/10 06:27:15;;;;;;;10.52;7.03;;;22.70;1.00;;;;;;4784880;29;37195;-80
2023/06/10 06:29:41;;;;;;;10.85;7.10;;;22.80;1.00;;;;;;4794237;29;37113;-78
2023/06/10 06:32:08;;;;;;;11.10;6.05;;;22.60;1.00;;;;;;4794011;29;39600;-78
2023/06/10 06:34:34;;;;;;;9.55;6.80;;;22.80;1.00;;;;;;4792492;29;36905;-78
2023/06/10 06:37:00;;;;;;;9.07;6.95;;;22.80;1.00;;;;;;4796571;29;38583;-80
2023/06/10 06:39:26;;;;;;;10.65;6.93;;;22.70;1.00;;;;;;4788516;29;37166;-80
2023/06/10 06:41:53;;;;;;;11.80;6.63;;;22.60;1.00;;;;;;4782723;29;38446;-81
2023/06/10 06:44:19;;;;;;;12.18;6.63;;;22.70;1.00;;;;;;4793500;29;38956;-81
2023/06/10 06:46:45;;;;;;;10.15;6.90;;;23.00;1.00;;;;;;4795397;29;37427;-80
2023/06/10 06:49:11;;;;;;;10.35;6.75;;;23.10;1.00;;;;;;4791970;29;37161;-83
2023/06/10 06:51:37;;;;;;;10.73;6.53;;;23.30;1.00;;;;;;4795934;29;38452;-81
2023/06/10 06:54:05;;;;;;;9.90;6.75;;;23.50;1.00;;;;;;4793251;29;38819;-82
2023/06/10 06:56:31;;;;;;;13.10;6.78;;;23.80;1.00;;;;;;4795375;29;37212;-81
2023/06/10 06:58:57;;;;;;;9.60;6.38;;;23.70;99.90;;;;;;4793809;29;37765;-82
2023/06/10 07:01:23;;;;;;;11.25;6.70;;;23.90;1.00;;;;;;4796540;29;39531;-84
2023/06/10 07:03:49;;;;;;;10.48;6.53;;;24.10;99.90;;;;;;4801685;29;39411;-83
2023/06/10 07:06:16;;;;;;;10.82;6.50;;;24.00;99.90;;;;;;4801411;29;36883;-83
2023/06/10 07:08:42;;;;;;;9.75;5.90;;;24.10;99.90;;;;;;4798944;29;37134;-84
2023/06/10 07:11:08;;;;;;;10.48;6.78;;;24.30;99.90;;;;;;4793829;29;39617;-83
2023/06/10 07:13:34;;;;;;;7.85;6.25;;;24.20;99.90;;;;;;4791863;29;36816;-81
2023/06/10 07:16:00;;;;;;;9.27;6.57;;;24.00;99.90;;;;;;4792667;29;36056;-82
2023/06/10 07:18:26;;;;;;;9.82;6.00;;;24.10;99.90;;;;;;4792225;29;36630;-82
2023/06/10 07:20:52;;;;;;;12.52;6.97;;;24.20;99.90;;;;;;4792514;29;37958;-78
2023/06/10 07:23:18;;;;;;;8.80;6.57;;;24.40;99.90;;;;;;4797139;29;39167;-78
2023/06/10 07:25:44;;;;;;;7.40;5.97;;;24.40;99.90;;;;;;4797512;29;37251;-77
2023/06/10 07:28:11;;;;;;;11.20;6.72;;;24.40;99.90;;;;;;4796517;29;37478;-77
2023/06/10 07:30:37;;;;;;;8.95;6.15;;;24.40;99.90;;;;;;4787926;29;36471;-76
2023/06/10 07:33:03;;;;;;;9.95;6.43;;;24.70;99.90;;;;;;4794534;29;38472;-77
2023/06/10 07:35:29;;;;;;;10.13;5.53;;;24.90;99.90;;;;;;4794591;29;37887;-79
2023/06/10 07:37:55;;;;;;;11.93;5.40;;;25.00;1.00;;;;;;4791254;29;37125;-78
2023/06/10 07:40:21;;;;;;;10.05;6.47;;;25.60;1.00;;;;;;4787123;29;37405;-77
2023/06/10 07:42:47;;;;;;;9.35;5.63;;;25.50;95.90;;;;;;4788925;29;37513;-80
2023/06/10 07:45:13;;;;;;;6.47;5.80;;;25.50;99.90;;;;;;4799573;29;38632;-80
2023/06/10 07:47:39;;;;;;;8.77;5.85;;;25.50;13.00;;;;;;4794062;29;36117;-79
2023/06/10 07:50:06;;;;;;;9.02;5.90;;;25.60;1.00;;;;;;4794750;29;37687;-80
2023/06/10 07:52:32;;;;;;;12.70;6.03;;;25.50;1.00;;;;;;4789487;29;38200;-82
2023/06/10 07:54:58;;;;;;;7.60;6.10;;;25.70;1.00;;;;;;4808380;29;38202;-79
2023/06/10 07:57:24;;;;;;;8.77;6.03;;;25.60;1.00;;;;;;4781860;29;37181;-80
2023/06/10 07:59:50;;;;;;;11.73;5.47;;;25.90;1.00;;;;;;4799076;29;39838;-78
2023/06/10 08:02:16;;;;;;;7.75;5.70;;;25.90;1.00;;;;;;4785538;29;37513;-78
2023/06/10 08:04:42;;;;;;;7.75;5.50;;;26.20;13.60;;;;;;4779163;29;36778;-80
2023/06/10 08:07:09;;;;;;;10.65;6.00;;;26.50;1.00;;;;;;4794572;29;36843;-80
2023/06/10 08:09:35;;;;;;;7.53;5.68;;;26.40;1.00;;;;;;4786402;29;37956;-82
2023/06/10 08:12:01;;;;;;;9.82;6.03;;;26.30;1.00;;;;;;4798711;29;38816;-80
2023/06/10 08:14:27;;;;;;;8.77;5.65;;;26.40;1.00;;;;;;4786480;29;47255;-80
2023/06/10 08:16:53;;;;;;;7.18;5.97;;;26.30;1.00;;;;;;4793099;29;38286;-80
2023/06/10 08:19:20;;;;;;;7.13;5.63;;;26.10;1.00;;;;;;4796679;29;37620;-79
2023/06/10 08:21:46;;;;;;;8.52;5.55;;;26.30;1.00;;;;;;4795705;29;38564;-79
2023/06/10 08:24:12;;;;;;;6.45;4.80;;;26.30;1.00;;;;;;4796826;29;38966;-79
2023/06/10 08:26:39;;;;;;;6.82;5.53;;;26.70;1.00;;;;;;4797058;29;34995;-79
2023/06/10 08:29:05;;;;;;;9.18;5.05;;;26.90;1.00;;;;;;4799057;29;39358;-79
2023/06/10 08:31:31;;;;;;;9.23;5.68;;;27.20;1.00;;;;;;4790349;29;38276;-80
2023/06/10 08:33:57;;;;;;;9.25;5.57;;;27.40;1.00;;;;;;4797212;29;38196;-80
2023/06/10 08:36:23;;;;;;;8.75;5.60;;;27.40;1.00;;;;;;4797902;29;35892;-80
2023/06/10 08:38:49;;;;;;;8.73;5.40;;;27.40;1.00;;;;;;4794392;29;37542;-78
2023/06/10 08:41:17;;;;;;;8.30;5.10;;;27.50;1.00;;;;;;4789964;29;36850;-80
2023/06/10 08:44:20;;;;;;;6.63;5.10;;;27.50;1.00;;;;;;4777140;29;36863;-80
2023/06/10 08:46:48;;;;;;;8.75;5.50;;;27.70;1.00;;;;;;4780690;29;47373;-80
2023/06/10 08:49:20;;;;;;;7.28;4.65;;;28.20;1.00;;;;;;4787193;29;38226;-80
2023/06/10 08:51:50;;;;;;;8.57;5.13;;;28.00;1.00;;;;;;4783739;29;38058;-79
2023/06/10 08:54:21;;;;;;;8.00;4.75;;;28.40;1.00;;;;;;4787435;29;38123;-81
2023/06/10 08:56:51;;;;;;;6.88;4.05;;;28.70;1.00;;;;;;4789743;29;38116;-79
2023/06/10 08:59:17;;;;;;;7.90;4.60;;;28.90;1.00;;;;;;4790682;29;39399;-80
2023/06/10 09:01:44;;;;;;;8.80;5.03;;;28.70;1.00;;;;;;4777192;29;38577;-82
2023/06/10 09:04:11;;;;;;;9.93;4.80;;;28.70;99.90;;;;;;4786127;29;36913;-77
2023/06/10 09:06:38;;;;;;;10.52;5.55;;;28.80;99.90;;;;;;4769955;29;36988;-77
2023/06/10 09:09:07;;;;;;;6.95;4.85;;;29.00;99.90;;;;;;4779116;29;37422;-79
2023/06/10 09:11:33;;;;;;;6.90;5.10;;;29.00;99.90;;;;;;4780389;29;38195;-79
2023/06/10 09:14:00;;;;;;;7.97;4.88;;;28.50;99.90;;;;;;4779426;29;38337;-83
2023/06/10 09:16:26;;;;;;;6.75;4.65;;;28.30;99.90;;;;;;4787986;29;37083;-83
2023/06/10 09:18:55;;;;;;;10.73;4.90;;;28.30;99.90;;;;;;4793619;29;39912;-84
2023/06/10 09:21:24;;;;;;;6.30;4.65;;;28.50;99.90;;;;;;4785249;29;40185;-82
2023/06/10 09:23:51;;;;;;;10.88;5.00;;;28.40;99.90;;;;;;4786070;29;38412;-78
2023/06/10 09:26:18;;;;;;;8.90;5.50;;;28.50;99.90;;;;;;4786411;29;35872;-82
2023/06/10 09:28:48;;;;;;;6.47;4.75;;;28.50;99.90;;;;;;4791050;29;37632;-79
2023/06/10 09:31:18;;;;;;;10.40;5.05;;;28.30;99.90;;;;;;4784256;29;37015;-82
2023/06/10 09:33:45;;;;;;;9.75;5.15;;;28.60;99.90;;;;;;4782851;29;39795;-84
2023/06/10 09:36:12;;;;;;;8.88;5.05;;;29.20;99.90;;;;;;4789372;29;36053;-83
2023/06/10 09:38:38;;;;;;;8.38;5.20;;;29.40;99.90;;;;;;4794095;29;39169;-80
2023/06/10 09:41:04;;;;;;;9.00;4.47;;;29.40;99.90;;;;;;4778635;29;38482;-81
2023/06/10 09:43:44;;;;;;;7.85;5.03;;;29.20;99.90;;;;;;4801674;29;37085;-80
2023/06/10 09:46:18;;;;;;;7.03;4.47;;;29.40;99.90;;;;;;4793895;29;37023;-84
2023/06/10 09:48:46;;;;;;;11.20;4.85;;;29.20;99.90;;;;;;4795060;29;38917;-84
2023/06/10 09:51:13;;;;;;;6.00;4.95;;;29.50;99.90;;;;;;4793194;29;37257;-80
2023/06/10 09:53:39;;;;;;;6.72;4.35;;;29.70;99.90;;;;;;4792691;29;39068;-83
2023/06/10 09:56:06;;;;;;;7.30;4.47;;;29.80;99.90;;;;;;4789616;29;36312;-88
2023/06/10 09:58:37;;;;;;;7.85;4.53;;;30.10;99.90;;;;;;4789677;29;38132;-82
2023/06/10 10:01:09;;;;;;;7.57;4.47;;;30.30;99.90;;;;;;4791539;29;38282;-77
2023/06/10 10:03:50;;;;;;;5.03;4.53;;;30.00;99.90;;;;;;4786079;29;38307;-79
2023/06/10 10:06:17;;;;;;;5.20;4.47;;;29.80;99.90;;;;;;4773132;29;36016;-80
2023/06/10 10:08:45;;;;;;;6.07;4.80;;;30.00;99.90;;;;;;4789735;29;39831;-83
2023/06/10 10:11:12;;;;;;;5.03;4.35;;;30.10;99.90;;;;;;4794593;29;38688;-81
2023/06/10 10:13:39;;;;;;;6.05;4.68;;;30.20;99.90;;;;;;4794120;29;38797;-81
2023/06/10 10:16:13;;;;;;;10.07;4.70;;;30.30;99.90;;;;;;4794000;29;37526;-85
2023/06/10 10:18:43;;;;;;;8.10;4.32;;;30.20;99.90;;;;;;4795600;29;39493;-84
2023/06/10 10:21:13;;;;;;;5.95;4.22;;;30.50;99.90;;;;;;4797694;29;39544;-81
2023/06/10 10:23:59;;;;;;;7.95;4.40;;;30.20;99.90;;;;;;4795034;29;38433;-79
2023/06/10 10:26:26;;;;;;;5.60;4.45;;;30.40;99.90;;;;;;4775760;29;34731;-80
2023/06/10 10:29:04;;;;;;;4.93;4.00;;;30.60;99.90;;;;;;4777177;29;37892;-81
2023/06/10 10:31:34;;;;;;;4.93;4.45;;;30.90;99.90;;;;;;4793877;29;47094;-80
2023/06/10 10:34:04;;;;;;;6.15;4.13;;;30.90;92.30;;;;;;4798584;29;38581;-84
2023/06/10 10:36:31;;;;;;;6.32;4.57;;;30.90;38.60;;;;;;4792268;29;47291;-78
2023/06/10 10:38:58;;;;;;;6.75;4.10;;;30.70;27.30;;;;;;4796752;29;37801;-80
2023/06/10 10:41:26;;;;;;;8.73;4.18;;;30.70;37.10;;;;;;4797765;29;37588;-84
2023/06/10 10:43:53;;;;;;;4.88;4.30;;;30.70;28.60;;;;;;4793218;29;37663;-83
2023/06/10 10:46:20;;;;;;;6.47;4.03;;;30.80;10.30;;;;;;4784506;29;37100;-79
2023/06/10 10:48:51;;;;;;;5.65;3.90;;;30.90;47.40;;;;;;4796969;29;36337;-84
2023/06/10 10:51:17;;;;;;;5.80;3.92;;;31.00;24.40;;;;;;4793741;29;37411;-84
2023/06/10 10:53:44;;;;;;;7.25;4.63;;;30.90;84.50;;;;;;4797088;29;37467;-88
2023/06/10 10:56:18;;;;;;;5.32;4.00;;;31.10;17.90;;;;;;4793349;29;37268;-80
2023/06/10 10:59:04;;;;;;;5.32;3.90;;;31.30;29.70;;;;;;4795730;29;38609;-84
2023/06/10 11:01:46;;;;;;;5.82;3.88;;;31.30;3.40;;;;;;4778035;29;47415;-86
2023/06/10 11:04:12;;;;;;;5.53;4.00;;;31.00;1.00;;;;;;4778655;29;37233;-87
2023/06/10 11:06:39;;;;;;;7.15;3.65;;;31.20;1.00;;;;;;4799140;29;37825;-83
2023/06/10 11:09:30;;;;;;;5.10;3.95;;;31.60;1.00;;;;;;4785468;29;38695;-83
2023/06/10 11:11:59;;;;;;;4.93;4.07;;;31.70;1.00;;;;;;4779330;29;39081;-81
2023/06/10 11:14:30;;;;;;;4.97;3.65;;;31.40;1.00;;;;;;4787742;29;37857;-82
2023/06/10 11:17:00;;;;;;;6.70;3.90;;;31.40;1.00;;;;;;4784324;29;38862;-83
2023/06/10 11:19:38;;;;;;;5.75;3.88;;;31.50;1.00;;;;;;4789195;29;40519;-82
2023/06/10 11:22:07;;;;;;;7.72;4.00;;;31.40;1.00;;;;;;4798843;29;37837;-83
2023/06/10 11:24:33;;;;;;;4.03;3.58;;;31.20;1.00;;;;;;4796588;29;38308;-83
2023/06/10 11:27:24;;;;;;;4.28;3.67;;;31.30;1.00;;;;;;4796289;29;36247;-82
2023/06/10 11:30:07;;;;;;;6.68;3.70;;;31.40;1.00;;;;;;4788656;29;47109;-83
2023/06/10 11:32:34;;;;;;;5.80;3.92;;;31.70;1.00;;;;;;4793363;29;47642;-84
2023/06/10 11:35:05;;;;;;;5.70;3.55;;;31.40;1.00;;;;;;4807316;29;38727;-84
2023/06/10 11:37:31;;;;;;;5.28;3.88;;;31.20;1.00;;;;;;4804137;29;46907;-83
2023/06/10 11:39:58;;;;;;;4.65;3.75;;;31.60;1.00;;;;;;4810549;29;38212;-83
2023/06/10 11:42:24;;;;;;;5.88;3.97;;;31.70;1.00;;;;;;4814244;29;39744;-82
2023/06/10 11:44:52;;;;;;;6.00;4.05;;;31.60;1.00;;;;;;4807237;29;37663;-83
2023/06/10 11:47:19;;;;;;;4.55;3.50;;;31.20;1.00;;;;;;4803071;29;36955;-83
2023/06/10 11:49:55;;;;;;;6.68;3.97;;;31.20;1.00;;;;;;4787455;29;37676;-84
2023/06/10 11:52:33;;;;;;;5.47;4.10;;;31.40;1.00;;;;;;4796012;29;38513;-80
2023/06/10 11:54:59;;;;;;;5.78;3.50;;;31.40;1.00;;;;;;4794557;29;38357;-86
2023/06/10 11:57:25;;;;;;;7.22;3.88;;;31.60;1.00;;;;;;4799400;29;37585;-81
2023/06/10 11:59:52;;;;;;;7.32;4.60;;;31.50;1.00;;;;;;4785734;29;37659;-82
2023/06/10 12:02:19;;;;;;;5.50;3.67;;;31.60;1.00;;;;;;4792973;29;37363;-82
2023/06/10 12:04:45;;;;;;;5.28;4.03;;;31.80;1.00;;;;;;4801728;29;38044;-82
2023/06/10 12:07:19;;;;;;;6.13;4.07;;;31.80;1.00;;;;;;4798996;29;36375;-81
2023/06/10 12:09:45;;;;;;;5.72;3.75;;;31.90;1.00;;;;;;4796495;29;38805;-81
2023/06/10 12:12:12;;;;;;;7.53;3.75;;;32.10;1.00;;;;;;4796243;29;37843;-80
2023/06/10 12:14:54;;;;;;;7.05;4.00;;;31.90;1.00;;;;;;4788754;29;36956;-80
2023/06/10 12:17:41;;;;;;;8.00;4.15;;;32.00;1.00;;;;;;4796812;29;36985;-82
2023/06/10 12:20:23;;;;;;;4.65;4.13;;;31.90;1.00;;;;;;4797563;29;39045;-81
2023/06/10 12:22:50;;;;;;;5.90;3.65;;;31.70;1.00;;;;;;4797203;29;37520;-82
2023/06/10 12:25:16;;;;;;;6.15;4.57;;;31.80;1.00;;;;;;4793104;29;37020;-82
2023/06/10 12:27:55;;;;;;;6.13;4.20;;;31.90;1.00;;;;;;4799862;29;37073;-85
2023/06/10 12:30:26;;;;;;;7.15;4.22;;;31.80;1.00;;;;;;4777246;29;37735;-81
2023/06/10 12:32:53;;;;;;;5.03;4.03;;;31.60;1.00;;;;;;4795773;29;37080;-82
2023/06/10 12:35:28;;;;;;;6.22;3.97;;;31.50;1.00;;;;;;4799413;29;37663;-83
2023/06/10 12:37:56;;;;;;;5.40;3.90;;;31.70;1.00;;;;;;4791355;29;37487;-83
2023/06/10 12:40:31;;;;;;;6.20;4.00;;;31.70;1.00;;;;;;4796337;29;38550;-84
2023/06/10 12:42:58;;;;;;;5.32;3.67;;;31.80;1.00;;;;;;4796368;29;37203;-81
2023/06/10 12:45:35;;;;;;;5.63;4.47;;;31.80;1.00;;;;;;4798875;29;36888;-83
2023/06/10 12:48:08;;;;;;;3.97;3.67;;;31.60;1.00;;;;;;4785702;29;37084;-82
2023/06/10 12:50:40;;;;;;;6.70;4.13;;;31.70;1.00;;;;;;4796925;29;49118;-83
2023/06/10 12:53:07;;;;;;;8.18;4.20;;;32.00;1.00;;;;;;4787818;29;38455;-78
2023/06/10 12:55:33;;;;;;;8.00;4.03;;;32.30;1.00;;;;;;4798338;29;38306;-82
2023/06/10 12:58:01;;;;;;;5.93;3.95;;;32.30;1.00;;;;;;4799262;29;37177;-79